Time;durP1;ratioP1;P1;durP2;ratioP2;P2;SDS_P1;SDS_P2;PMS_P1;PMS_P2;Temp;Humidity;BMP_temperature;BMP_pressure;BME280_temperature;BME280_humidity;BME280_pressure;Samples;Min_cycle;Max_cycle;Signal;HPM_P1;HPM_P2
2021/08/15 00:01:26;;;;;;;26.33;23.77;;;20.40;99.90;;;;;;5092804;22;20839;-68
2021/08/15 00:03:53;;;;;;;25.57;22.97;;;20.30;99.90;;;;;;5090208;28;21320;-68
2021/08/15 00:06:20;;;;;;;26.60;23.97;;;20.20;99.90;;;;;;5088996;28;20626;-68
2021/08/15 00:08:49;;;;;;;25.30;23.10;;;20.10;99.90;;;;;;5087951;28;20738;-68
2021/08/15 00:11:15;;;;;;;26.33;24.00;;;20.10;99.90;;;;;;5064641;22;20694;-66
2021/08/15 00:13:42;;;;;;;26.63;24.23;;;20.00;99.90;;;;;;5042917;28;20640;-66
2021/08/15 00:16:09;;;;;;;25.63;23.40;;;20.00;99.90;;;;;;5050078;28;20617;-66
2021/08/15 00:18:37;;;;;;;28.50;25.90;;;19.90;99.90;;;;;;5049766;28;20631;-66
2021/08/15 00:21:04;;;;;;;25.17;22.87;;;20.00;99.90;;;;;;5038392;28;20684;-67
2021/08/15 00:23:31;;;;;;;26.73;24.33;;;20.00;99.90;;;;;;5029994;28;20726;-67
2021/08/15 00:25:59;;;;;;;27.80;25.30;;;19.90;99.90;;;;;;5029828;28;20739;-66
2021/08/15 00:28:26;;;;;;;26.63;24.10;;;19.90;99.90;;;;;;5030204;28;20628;-66
2021/08/15 00:30:53;;;;;;;26.83;24.33;;;19.90;99.90;;;;;;5055597;22;20692;-67
2021/08/15 00:33:20;;;;;;;28.63;26.03;;;19.90;99.90;;;;;;5089998;28;20606;-67
2021/08/15 00:35:47;;;;;;;29.43;26.27;;;19.90;99.90;;;;;;5095700;22;20692;-66
2021/08/15 00:38:13;;;;;;;28.97;26.33;;;19.90;99.90;;;;;;5089879;28;20737;-66
2021/08/15 00:40:41;;;;;;;30.42;27.50;;;19.90;99.90;;;;;;5090014;28;20674;-66
2021/08/15 00:43:10;;;;;;;30.93;27.87;;;19.90;99.90;;;;;;5090312;28;20204;-66
2021/08/15 00:45:36;;;;;;;31.53;28.50;;;19.90;99.90;;;;;;5089971;28;20782;-66
2021/08/15 00:48:10;;;;;;;30.17;27.03;;;19.90;99.90;;;;;;5089439;28;20618;-66
2021/08/15 00:50:37;;;;;;;28.43;25.77;;;19.90;99.90;;;;;;5094797;22;21711;-67
2021/08/15 00:53:05;;;;;;;27.23;24.83;;;19.80;99.90;;;;;;5088849;28;20749;-67
2021/08/15 00:55:33;;;;;;;29.17;26.53;;;19.70;99.90;;;;;;5093976;22;20674;-66
2021/08/15 00:58:01;;;;;;;29.97;27.07;;;19.70;99.90;;;;;;5089723;28;20630;-66
2021/08/15 01:00:29;;;;;;;28.67;26.07;;;19.60;99.90;;;;;;5089466;28;20646;-66
2021/08/15 01:02:59;;;;;;;28.47;25.87;;;19.50;99.90;;;;;;5090106;28;20618;-66
2021/08/15 01:05:26;;;;;;;28.50;25.77;;;19.50;99.90;;;;;;5089689;28;20633;-66
2021/08/15 01:07:53;;;;;;;26.90;24.00;;;19.40;99.90;;;;;;5089218;28;20626;-66
2021/08/15 01:10:20;;;;;;;28.67;25.87;;;19.40;99.90;;;;;;5089272;28;20629;-66
2021/08/15 01:12:48;;;;;;;28.70;26.00;;;19.40;99.90;;;;;;5088764;28;20725;-66
2021/08/15 01:15:15;;;;;;;29.43;26.73;;;19.40;99.90;;;;;;5089462;28;20618;-66
2021/08/15 01:17:44;;;;;;;28.25;25.55;;;19.50;99.90;;;;;;5089136;28;20623;-66
2021/08/15 01:20:12;;;;;;;28.63;26.20;;;19.50;99.90;;;;;;5089249;28;20226;-66
2021/08/15 01:22:41;;;;;;;30.85;27.60;;;19.50;99.90;;;;;;5088622;28;20208;-66
2021/08/15 01:25:09;;;;;;;30.50;27.60;;;19.40;99.90;;;;;;5088910;28;20441;-66
2021/08/15 01:27:38;;;;;;;29.73;26.50;;;19.40;99.90;;;;;;5088548;28;20208;-66
2021/08/15 01:30:08;;;;;;;29.92;27.02;;;19.40;99.90;;;;;;5088795;28;20208;-66
2021/08/15 01:32:35;;;;;;;30.40;27.55;;;19.40;99.90;;;;;;5088745;28;20224;-66
2021/08/15 01:35:03;;;;;;;30.98;28.08;;;19.30;99.90;;;;;;5089115;28;20541;-66
2021/08/15 01:37:30;;;;;;;29.90;27.17;;;19.30;99.90;;;;;;5058552;22;20240;-67
2021/08/15 01:40:01;;;;;;;30.83;27.77;;;19.30;99.90;;;;;;5048247;28;20209;-68
2021/08/15 01:42:29;;;;;;;29.45;26.75;;;19.30;99.90;;;;;;5048251;28;20207;-67
2021/08/15 01:44:55;;;;;;;31.95;28.67;;;19.20;99.90;;;;;;5048337;28;20663;-67
2021/08/15 01:47:23;;;;;;;30.13;27.20;;;19.20;99.90;;;;;;5072715;22;20232;-66
2021/08/15 01:49:50;;;;;;;32.00;28.85;;;19.20;99.90;;;;;;5068553;28;20289;-66
2021/08/15 01:52:17;;;;;;;32.97;29.88;;;19.10;99.90;;;;;;5091491;22;20263;-68
2021/08/15 01:54:44;;;;;;;31.73;28.63;;;19.10;99.90;;;;;;5088363;28;20208;-67
2021/08/15 01:57:11;;;;;;;29.92;27.10;;;19.20;99.90;;;;;;5077637;22;20768;-66
2021/08/15 01:59:38;;;;;;;29.35;26.65;;;19.00;99.90;;;;;;5068188;28;20215;-66
2021/08/15 02:02:05;;;;;;;31.50;28.60;;;19.00;99.90;;;;;;5071594;28;20212;-66
2021/08/15 02:04:33;;;;;;;28.38;25.85;;;18.90;99.90;;;;;;5088502;28;20295;-66
2021/08/15 02:07:00;;;;;;;29.88;27.25;;;18.90;99.90;;;;;;5088400;28;20290;-66
2021/08/15 02:09:27;;;;;;;32.28;29.08;;;18.90;99.90;;;;;;5087923;28;20673;-66
2021/08/15 02:11:54;;;;;;;31.05;28.00;;;18.90;99.90;;;;;;5088039;28;20225;-66
2021/08/15 02:14:21;;;;;;;30.27;27.50;;;18.90;99.90;;;;;;5088268;28;20673;-66
2021/08/15 02:16:47;;;;;;;31.02;28.13;;;18.80;99.90;;;;;;5087188;28;20200;-66
2021/08/15 02:19:14;;;;;;;30.63;27.92;;;18.80;99.90;;;;;;5087156;28;20208;-66
2021/08/15 02:21:42;;;;;;;30.38;27.58;;;18.80;99.90;;;;;;5087889;28;20206;-66
2021/08/15 02:24:09;;;;;;;29.88;27.05;;;18.90;99.90;;;;;;5087634;28;20662;-66
2021/08/15 02:26:36;;;;;;;31.25;28.05;;;18.70;99.90;;;;;;5086977;28;20433;-66
2021/08/15 02:29:03;;;;;;;32.35;29.20;;;18.70;99.90;;;;;;5087702;28;20204;-66
2021/08/15 02:31:30;;;;;;;32.80;29.80;;;18.70;99.90;;;;;;5088183;28;20323;-66
2021/08/15 02:33:57;;;;;;;32.33;29.48;;;18.60;99.90;;;;;;5088427;28;20208;-66
2021/08/15 02:36:24;;;;;;;32.67;29.38;;;18.60;99.90;;;;;;5087283;28;20212;-66
2021/08/15 02:38:54;;;;;;;32.42;29.27;;;18.60;99.90;;;;;;5087439;28;20192;-66
2021/08/15 02:41:20;;;;;;;32.70;29.48;;;18.50;99.90;;;;;;5087583;28;20208;-66
2021/08/15 02:43:47;;;;;;;34.35;30.50;;;18.50;99.90;;;;;;5088063;28;20574;-66
2021/08/15 02:46:14;;;;;;;31.48;28.45;;;18.50;99.90;;;;;;5088086;28;20197;-66
2021/08/15 02:48:41;;;;;;;34.08;30.58;;;18.50;99.90;;;;;;5085350;28;20222;-66
2021/08/15 02:51:08;;;;;;;33.72;30.67;;;18.50;99.90;;;;;;5092188;22;20254;-68
2021/08/15 02:53:34;;;;;;;33.00;29.92;;;18.60;99.90;;;;;;5086602;28;20211;-67
2021/08/15 02:56:03;;;;;;;33.63;30.20;;;18.60;99.90;;;;;;5091309;22;20310;-66
2021/08/15 02:58:29;;;;;;;34.95;31.27;;;18.70;99.90;;;;;;5086783;28;20285;-66
2021/08/15 03:00:57;;;;;;;33.60;30.10;;;18.70;99.90;;;;;;5092123;22;20338;-67
2021/08/15 03:03:24;;;;;;;33.00;29.90;;;18.60;99.90;;;;;;5085972;28;20227;-67
2021/08/15 03:05:50;;;;;;;31.27;28.40;;;18.60;99.90;;;;;;5085612;22;20236;-66
2021/08/15 03:08:17;;;;;;;31.50;28.17;;;18.50;99.90;;;;;;5047001;28;20292;-66
2021/08/15 03:10:44;;;;;;;32.17;29.02;;;18.50;99.90;;;;;;5045254;28;20202;-66
2021/08/15 03:13:15;;;;;;;32.33;29.02;;;18.40;99.90;;;;;;5046860;28;20217;-66
2021/08/15 03:15:42;;;;;;;33.38;30.15;;;18.50;99.90;;;;;;5053969;22;20205;-67
2021/08/15 03:18:12;;;;;;;33.58;30.30;;;18.50;99.90;;;;;;5045186;28;20213;-67
2021/08/15 03:20:39;;;;;;;34.25;30.83;;;18.60;99.90;;;;;;5046681;28;20670;-67
2021/08/15 03:23:06;;;;;;;37.22;32.03;;;18.60;99.90;;;;;;5044999;28;20198;-67
2021/08/15 03:28:07;;;;;;;34.85;31.45;;;18.70;99.90;;;;;;5033029;28;20233;-66
2021/08/15 03:30:36;;;;;;;34.10;30.63;;;18.80;99.90;;;;;;5027183;28;20210;-66
2021/08/15 03:33:03;;;;;;;35.70;32.05;;;18.80;99.90;;;;;;5029552;28;20241;-66
2021/08/15 03:35:30;;;;;;;34.72;31.38;;;18.80;99.90;;;;;;5045485;28;20212;-66
2021/08/15 03:37:57;;;;;;;34.22;30.80;;;18.80;99.90;;;;;;5046055;28;20201;-66
2021/08/15 03:40:23;;;;;;;34.63;31.25;;;18.80;99.90;;;;;;5047037;28;20750;-66
2021/08/15 03:42:50;;;;;;;31.27;28.15;;;18.80;99.90;;;;;;5046275;28;20197;-66
2021/08/15 03:45:17;;;;;;;32.85;29.55;;;18.70;99.90;;;;;;5033175;28;20210;-66
2021/08/15 03:47:45;;;;;;;32.97;29.67;;;18.70;99.90;;;;;;5037272;28;20212;-66
2021/08/15 03:50:12;;;;;;;33.03;29.92;;;18.60;99.90;;;;;;5046936;28;20215;-66
2021/08/15 03:52:40;;;;;;;33.95;30.65;;;18.60;99.90;;;;;;5046557;28;20712;-66
2021/08/15 03:55:10;;;;;;;33.60;30.33;;;18.60;99.90;;;;;;5046841;28;20570;-66
2021/08/15 03:57:37;;;;;;;33.70;30.48;;;18.60;99.90;;;;;;5046581;28;20200;-66
2021/08/15 04:00:05;;;;;;;34.30;30.92;;;18.50;99.90;;;;;;5047206;28;20202;-66
2021/08/15 04:02:32;;;;;;;34.53;31.33;;;18.50;99.90;;;;;;5040314;28;20205;-66
2021/08/15 04:05:01;;;;;;;31.20;28.10;;;18.50;99.90;;;;;;5046661;28;20212;-66
2021/08/15 04:07:27;;;;;;;32.33;29.05;;;18.40;99.90;;;;;;5046116;28;20892;-66
2021/08/15 04:09:54;;;;;;;33.17;29.92;;;18.40;99.90;;;;;;5046982;28;20205;-66
2021/08/15 04:12:21;;;;;;;33.00;29.73;;;18.50;99.90;;;;;;5046159;28;20248;-66
2021/08/15 04:14:49;;;;;;;32.80;29.60;;;18.40;99.90;;;;;;5046149;28;20210;-66
2021/08/15 04:17:16;;;;;;;32.92;29.67;;;18.40;99.90;;;;;;5046401;28;20198;-66
2021/08/15 04:19:43;;;;;;;32.80;29.50;;;18.40;99.90;;;;;;5030552;28;20218;-66
2021/08/15 04:22:11;;;;;;;31.23;28.30;;;18.40;99.90;;;;;;5026447;28;20211;-66
2021/08/15 04:24:38;;;;;;;32.80;29.60;;;18.40;99.90;;;;;;5026466;28;20229;-66
2021/08/15 04:27:05;;;;;;;31.98;28.90;;;18.40;99.90;;;;;;5026355;28;20210;-66
2021/08/15 04:29:35;;;;;;;30.80;27.90;;;18.40;99.90;;;;;;5028438;28;20293;-66
2021/08/15 04:32:02;;;;;;;32.75;29.85;;;18.50;99.90;;;;;;5030440;28;20291;-66
2021/08/15 04:34:29;;;;;;;30.70;27.80;;;18.40;99.90;;;;;;5029943;28;20290;-66
2021/08/15 04:36:56;;;;;;;30.52;27.38;;;18.40;99.90;;;;;;5030778;28;20297;-66
2021/08/15 04:39:25;;;;;;;30.83;27.92;;;18.50;99.90;;;;;;5029151;28;20202;-66
2021/08/15 04:41:52;;;;;;;30.77;27.75;;;18.40;99.90;;;;;;5030371;28;20213;-66
2021/08/15 04:44:21;;;;;;;29.38;26.60;;;18.50;99.90;;;;;;5035821;28;20197;-66
2021/08/15 04:46:49;;;;;;;30.17;27.48;;;18.60;99.90;;;;;;5048866;28;20212;-66
2021/08/15 04:49:16;;;;;;;31.55;28.55;;;18.60;99.90;;;;;;5049286;28;20216;-66
2021/08/15 04:51:42;;;;;;;29.58;26.77;;;18.70;99.90;;;;;;5048626;28;20210;-66
2021/08/15 04:54:09;;;;;;;27.83;25.25;;;18.80;99.90;;;;;;5030088;28;20216;-66
2021/08/15 04:56:37;;;;;;;26.02;23.35;;;19.00;99.90;;;;;;5029315;28;20208;-66
2021/08/15 04:59:04;;;;;;;25.95;23.48;;;19.10;99.90;;;;;;5034337;28;20198;-66
2021/08/15 05:01:31;;;;;;;26.40;23.83;;;19.10;99.90;;;;;;5050606;28;20198;-66
2021/08/15 05:03:58;;;;;;;26.55;24.13;;;19.10;99.90;;;;;;5049339;28;20210;-66
2021/08/15 05:06:25;;;;;;;23.60;21.40;;;19.10;99.90;;;;;;5048425;28;20597;-66
2021/08/15 05:08:51;;;;;;;25.03;22.90;;;19.30;99.90;;;;;;5047405;28;20635;-66
2021/08/15 05:11:18;;;;;;;23.17;21.10;;;19.60;99.90;;;;;;5029553;28;20617;-66
2021/08/15 05:13:46;;;;;;;22.50;20.40;;;20.10;99.90;;;;;;5029471;28;21001;-66
2021/08/15 05:16:16;;;;;;;20.70;19.00;;;20.70;99.90;;;;;;5029401;28;20648;-66
2021/08/15 05:18:43;;;;;;;21.30;19.47;;;21.40;99.90;;;;;;5029251;28;20620;-66
2021/08/15 05:21:10;;;;;;;21.53;19.27;;;21.80;99.90;;;;;;5029421;28;20613;-66
2021/08/15 05:23:37;;;;;;;19.17;17.17;;;22.20;99.90;;;;;;5041641;28;20669;-66
2021/08/15 05:26:04;;;;;;;18.13;16.43;;;23.60;99.90;;;;;;5045212;28;20651;-66
2021/08/15 05:28:30;;;;;;;16.70;15.33;;;24.90;99.90;;;;;;5028667;28;20624;-66
2021/08/15 05:30:59;;;;;;;17.70;15.93;;;25.80;99.90;;;;;;5029034;28;20649;-66
2021/08/15 05:33:25;;;;;;;16.70;15.30;;;26.50;99.70;;;;;;5028759;28;21248;-66
2021/08/15 05:35:52;;;;;;;16.93;15.43;;;26.90;99.10;;;;;;5028836;28;20601;-66
2021/08/15 05:38:19;;;;;;;16.33;14.93;;;28.00;96.60;;;;;;5040129;28;21223;-66
2021/08/15 05:40:46;;;;;;;15.50;14.20;;;28.80;94.80;;;;;;5048135;28;20633;-67
2021/08/15 05:43:13;;;;;;;16.03;14.73;;;29.10;94.00;;;;;;5044538;28;20632;-66
2021/08/15 05:45:41;;;;;;;16.93;15.53;;;29.60;92.60;;;;;;5031705;28;20732;-67
2021/08/15 05:48:09;;;;;;;18.30;16.77;;;30.30;91.50;;;;;;5046722;28;20632;-67
2021/08/15 05:50:36;;;;;;;16.27;14.97;;;29.50;91.50;;;;;;5048083;28;20632;-67
2021/08/15 05:53:03;;;;;;;14.90;13.80;;;29.90;91.60;;;;;;5047979;28;20787;-66
2021/08/15 05:55:30;;;;;;;14.77;13.40;;;30.80;89.90;;;;;;5047508;28;20627;-66
2021/08/15 05:57:57;;;;;;;16.67;15.27;;;31.60;86.80;;;;;;5047739;28;20635;-66
2021/08/15 06:00:23;;;;;;;17.23;15.83;;;31.80;85.60;;;;;;5043903;28;20629;-66
2021/08/15 06:02:50;;;;;;;16.93;15.43;;;32.00;84.10;;;;;;5047881;28;20715;-66
2021/08/15 06:05:18;;;;;;;16.47;15.20;;;32.30;82.50;;;;;;5047308;28;21000;-67
2021/08/15 06:07:45;;;;;;;16.47;15.23;;;31.70;83.70;;;;;;5047725;28;20754;-66
2021/08/15 06:10:12;;;;;;;15.87;14.57;;;32.20;82.20;;;;;;5047884;28;20619;-66
2021/08/15 06:12:40;;;;;;;15.23;14.03;;;32.50;81.20;;;;;;5047350;28;20664;-66
2021/08/15 06:15:12;;;;;;;16.57;14.90;;;33.00;80.10;;;;;;5047719;28;20620;-66
2021/08/15 06:17:39;;;;;;;16.97;15.57;;;33.10;78.50;;;;;;5038916;28;20641;-67
2021/08/15 06:20:07;;;;;;;14.63;13.57;;;32.80;79.20;;;;;;5027708;28;20621;-65
2021/08/15 06:22:39;;;;;;;15.50;14.30;;;32.60;79.80;;;;;;5028460;28;20704;-67
2021/08/15 06:25:07;;;;;;;15.30;14.30;;;32.40;80.90;;;;;;5027831;28;20624;-66
2021/08/15 06:27:34;;;;;;;15.73;14.40;;;33.00;79.10;;;;;;5027306;28;20629;-67
2021/08/15 06:30:01;;;;;;;17.60;16.00;;;33.20;77.90;;;;;;5039251;28;20728;-66
2021/08/15 06:32:28;;;;;;;16.37;14.60;;;32.30;79.90;;;;;;5048172;28;20676;-67
2021/08/15 06:34:55;;;;;;;15.23;14.13;;;33.00;79.80;;;;;;5036283;28;21223;-66
2021/08/15 06:37:22;;;;;;;15.47;14.07;;;33.00;79.20;;;;;;5027075;28;21162;-66
2021/08/15 06:39:50;;;;;;;14.70;13.50;;;33.60;77.10;;;;;;5027201;28;20739;-65
2021/08/15 06:42:17;;;;;;;16.60;15.40;;;34.10;77.10;;;;;;5027098;28;21401;-66
2021/08/15 06:44:44;;;;;;;14.83;13.80;;;33.80;75.10;;;;;;5038027;28;20628;-66
2021/08/15 06:47:10;;;;;;;16.33;14.97;;;33.60;75.70;;;;;;5045664;28;20620;-66
2021/08/15 06:49:37;;;;;;;17.27;15.77;;;33.60;76.70;;;;;;5047039;28;20732;-66
2021/08/15 06:52:05;;;;;;;16.63;15.17;;;33.40;75.50;;;;;;5034910;28;21399;-66
2021/08/15 06:54:32;;;;;;;15.97;14.67;;;33.50;76.30;;;;;;5027177;28;20728;-66
2021/08/15 06:57:00;;;;;;;16.00;14.80;;;33.50;75.40;;;;;;5027015;28;20627;-66
2021/08/15 06:59:27;;;;;;;15.97;14.73;;;33.40;76.00;;;;;;5046218;28;20639;-66
2021/08/15 07:01:53;;;;;;;16.60;15.40;;;32.70;78.70;;;;;;5047122;28;20722;-66
2021/08/15 07:04:20;;;;;;;16.53;15.27;;;32.50;77.60;;;;;;5046836;28;21640;-66
2021/08/15 07:06:47;;;;;;;16.63;15.37;;;32.60;78.70;;;;;;5046852;28;20630;-66
2021/08/15 07:09:14;;;;;;;16.33;15.20;;;32.70;78.80;;;;;;5034147;28;20637;-66
2021/08/15 07:11:41;;;;;;;16.03;14.83;;;32.30;78.00;;;;;;5027502;28;20633;-66
2021/08/15 07:14:09;;;;;;;16.13;14.83;;;31.00;81.90;;;;;;5034957;28;20640;-66
2021/08/15 07:16:36;;;;;;;16.20;14.90;;;30.90;83.20;;;;;;5040342;28;20655;-66
2021/08/15 07:19:03;;;;;;;16.40;15.10;;;30.70;84.00;;;;;;5040733;28;21248;-66
2021/08/15 07:21:30;;;;;;;16.77;15.43;;;30.80;83.50;;;;;;5043958;28;20636;-66
2021/08/15 07:23:57;;;;;;;15.93;14.83;;;30.10;86.30;;;;;;5038945;28;20687;-66
2021/08/15 07:26:24;;;;;;;15.90;14.73;;;29.60;88.70;;;;;;5032818;28;20706;-66
2021/08/15 07:28:51;;;;;;;16.40;15.10;;;29.80;88.20;;;;;;5037532;28;21227;-66
2021/08/15 07:31:19;;;;;;;16.90;15.40;;;29.90;88.20;;;;;;5038707;28;20633;-66
2021/08/15 07:33:46;;;;;;;17.10;15.80;;;29.40;88.90;;;;;;5039909;28;20632;-65
2021/08/15 07:36:13;;;;;;;16.20;14.90;;;29.80;87.80;;;;;;5043426;28;20631;-66
2021/08/15 07:38:40;;;;;;;17.30;16.00;;;30.40;86.40;;;;;;5035105;28;20636;-66
2021/08/15 07:41:07;;;;;;;16.53;15.17;;;31.10;84.20;;;;;;5045262;28;20727;-66
2021/08/15 07:43:34;;;;;;;16.90;15.50;;;30.90;84.60;;;;;;5042149;28;20688;-66
2021/08/15 07:46:01;;;;;;;15.77;14.60;;;32.20;80.70;;;;;;5042246;28;21266;-66
2021/08/15 07:48:29;;;;;;;16.57;15.37;;;32.50;80.60;;;;;;5039157;28;20623;-66
2021/08/15 07:50:56;;;;;;;14.67;13.53;;;32.60;79.60;;;;;;5042953;28;20693;-66
2021/08/15 07:53:24;;;;;;;15.70;14.50;;;34.00;76.20;;;;;;5038365;28;20652;-66
2021/08/15 07:55:53;;;;;;;16.73;15.33;;;33.00;78.00;;;;;;5044808;28;20638;-67
2021/08/15 07:58:20;;;;;;;15.27;13.93;;;31.80;81.10;;;;;;5032147;28;20633;-67
2021/08/15 08:00:48;;;;;;;15.93;14.70;;;31.60;82.90;;;;;;5044813;28;20660;-66
2021/08/15 08:03:16;;;;;;;16.37;15.17;;;31.20;83.20;;;;;;5036694;28;20695;-66
2021/08/15 08:05:44;;;;;;;16.10;14.90;;;30.80;84.20;;;;;;5043741;28;20637;-67
2021/08/15 08:08:11;;;;;;;16.40;15.10;;;30.20;85.80;;;;;;5040169;28;21180;-67
2021/08/15 08:10:39;;;;;;;17.03;15.73;;;29.30;90.10;;;;;;5043387;28;20631;-67
2021/08/15 08:13:07;;;;;;;17.90;16.50;;;28.50;91.00;;;;;;5042612;28;20638;-66
2021/08/15 08:15:35;;;;;;;17.17;15.87;;;28.10;91.90;;;;;;5039985;28;21001;-66
2021/08/15 08:18:01;;;;;;;18.30;16.60;;;27.80;92.30;;;;;;5045376;28;20698;-66
2021/08/15 08:20:32;;;;;;;17.57;16.13;;;27.50;93.30;;;;;;5038182;28;20649;-66
2021/08/15 08:23:00;;;;;;;16.20;15.00;;;27.20;93.80;;;;;;5036487;28;20675;-66
2021/08/15 08:25:30;;;;;;;17.10;15.67;;;27.30;94.60;;;;;;5044287;28;20624;-66
2021/08/15 08:27:57;;;;;;;16.87;15.47;;;27.40;92.70;;;;;;5045181;28;20645;-66
2021/08/15 08:30:24;;;;;;;17.23;15.73;;;27.50;93.30;;;;;;5048585;28;20624;-66
2021/08/15 08:32:51;;;;;;;15.40;14.20;;;27.50;92.60;;;;;;5047891;28;20643;-66
2021/08/15 08:35:18;;;;;;;14.20;13.10;;;27.60;92.50;;;;;;5048344;28;21271;-66
2021/08/15 08:37:47;;;;;;;15.13;13.83;;;27.60;91.50;;;;;;5038825;28;21011;-66
2021/08/15 08:40:17;;;;;;;15.53;14.03;;;27.80;91.80;;;;;;5042780;28;20998;-67
2021/08/15 08:42:44;;;;;;;15.50;14.20;;;27.80;92.10;;;;;;5043992;28;20658;-66
2021/08/15 08:45:13;;;;;;;14.03;12.73;;;27.80;91.50;;;;;;5047781;28;20642;-66
2021/08/15 08:47:41;;;;;;;14.97;13.83;;;27.90;90.80;;;;;;5047515;28;20635;-66
2021/08/15 08:50:09;;;;;;;14.87;13.57;;;27.80;91.50;;;;;;5047996;28;20625;-66
2021/08/15 08:52:36;;;;;;;14.37;13.07;;;28.00;90.40;;;;;;5048401;28;20621;-66
2021/08/15 08:55:05;;;;;;;13.87;12.77;;;28.20;90.00;;;;;;5046774;28;20630;-66
2021/08/15 08:57:34;;;;;;;14.60;13.27;;;28.30;90.40;;;;;;5047958;28;20709;-66
2021/08/15 09:00:01;;;;;;;13.20;12.00;;;28.40;92.00;;;;;;5042932;28;20620;-67
2021/08/15 09:02:28;;;;;;;13.40;12.30;;;28.90;89.70;;;;;;5048119;28;21240;-66
2021/08/15 09:04:55;;;;;;;14.17;13.17;;;29.10;88.40;;;;;;5046979;28;20684;-66
2021/08/15 09:07:24;;;;;;;14.13;13.03;;;29.20;90.70;;;;;;5042291;28;21059;-66
2021/08/15 09:09:52;;;;;;;12.20;11.30;;;29.30;88.20;;;;;;5042941;28;20664;-66
2021/08/15 09:12:19;;;;;;;12.93;11.90;;;29.20;87.80;;;;;;5035548;28;20728;-66
2021/08/15 09:14:48;;;;;;;14.37;13.20;;;29.20;89.60;;;;;;5042055;28;21244;-66
2021/08/15 09:17:15;;;;;;;13.53;12.43;;;28.90;89.90;;;;;;5044403;28;20634;-66
2021/08/15 09:19:45;;;;;;;14.30;13.20;;;29.10;88.50;;;;;;5040010;28;20733;-66
2021/08/15 09:22:17;;;;;;;12.93;11.83;;;29.30;90.20;;;;;;5039039;28;20647;-66
2021/08/15 09:24:52;;;;;;;13.70;12.50;;;29.70;87.20;;;;;;5039742;28;20691;-65
2021/08/15 09:27:21;;;;;;;11.73;10.80;;;30.80;82.10;;;;;;5040000;28;20642;-65
2021/08/15 09:30:19;;;;;;;12.87;11.83;;;31.00;82.10;;;;;;5044235;28;20646;-65
2021/08/15 09:32:49;;;;;;;12.83;11.83;;;30.20;84.90;;;;;;5040047;28;20735;-66
2021/08/15 09:35:22;;;;;;;13.43;12.33;;;30.00;88.00;;;;;;5047130;28;20628;-66
2021/08/15 09:37:58;;;;;;;11.83;10.83;;;30.20;86.50;;;;;;5038030;28;20723;-65
2021/08/15 09:40:27;;;;;;;12.40;11.07;;;31.10;80.40;;;;;;5047570;28;20630;-64
2021/08/15 09:42:55;;;;;;;11.63;10.80;;;31.60;78.60;;;;;;5046836;28;20672;-64
2021/08/15 09:45:39;;;;;;;11.87;10.93;;;32.20;77.60;;;;;;5046864;28;20695;-65
2021/08/15 09:48:24;;;;;;;11.53;10.70;;;31.80;78.40;;;;;;5045272;28;20673;-65
2021/08/15 09:51:13;;;;;;;13.40;10.50;;;32.60;76.00;;;;;;5043686;28;20632;-64
2021/08/15 09:53:41;;;;;;;11.80;10.90;;;32.70;77.40;;;;;;5045564;28;20744;-65
2021/08/15 09:56:09;;;;;;;11.60;10.50;;;33.50;75.50;;;;;;5047402;28;21185;-64
2021/08/15 09:58:39;;;;;;;12.67;11.77;;;33.20;78.10;;;;;;5047406;28;20635;-66
2021/08/15 10:01:09;;;;;;;12.80;11.80;;;32.50;79.10;;;;;;5046325;28;20743;-65
2021/08/15 10:03:37;;;;;;;11.30;10.30;;;32.60;76.00;;;;;;5045265;28;20677;-65
2021/08/15 10:06:04;;;;;;;11.73;10.83;;;31.60;83.40;;;;;;5047552;28;20632;-65
2021/08/15 10:08:31;;;;;;;12.60;11.60;;;30.70;86.80;;;;;;5046732;28;21259;-65
2021/08/15 10:11:00;;;;;;;12.17;11.27;;;30.40;88.50;;;;;;5037862;28;20620;-65
2021/08/15 10:13:29;;;;;;;12.00;11.07;;;30.80;88.80;;;;;;5043649;28;20663;-65
2021/08/15 10:16:01;;;;;;;11.80;11.00;;;30.90;86.20;;;;;;5045081;28;20738;-66
2021/08/15 10:18:32;;;;;;;12.07;10.90;;;30.80;85.70;;;;;;5042771;28;20634;-66
2021/08/15 10:21:19;;;;;;;13.50;12.47;;;31.00;86.20;;;;;;5044373;28;20658;-65
2021/08/15 10:23:46;;;;;;;12.83;11.83;;;31.30;84.10;;;;;;5038864;28;20684;-66
2021/08/15 10:26:41;;;;;;;13.43;12.33;;;31.60;82.00;;;;;;5046220;28;20658;-66
2021/08/15 10:29:33;;;;;;;13.23;12.23;;;31.40;85.00;;;;;;5035695;28;20636;-65
2021/08/15 10:32:21;;;;;;;12.30;11.50;;;30.80;89.80;;;;;;5046049;28;21176;-66
2021/08/15 10:35:17;;;;;;;13.63;12.53;;;30.80;84.00;;;;;;5046195;28;20642;-65
2021/08/15 10:37:50;;;;;;;13.83;12.70;;;31.30;84.40;;;;;;5043440;28;20705;-65
2021/08/15 10:40:57;;;;;;;13.07;12.07;;;31.30;88.40;;;;;;5032391;28;20639;-65
2021/08/15 10:43:56;;;;;;;13.90;12.33;;;31.50;85.50;;;;;;5041581;28;20624;-65
2021/08/15 10:46:23;;;;;;;14.10;13.07;;;31.80;87.90;;;;;;5047321;28;21008;-65
2021/08/15 10:48:55;;;;;;;13.90;12.83;;;32.20;84.90;;;;;;5048405;28;20628;-66
2021/08/15 10:55:05;;;;;;;12.63;11.63;;;33.00;82.90;;;;;;5075706;26;20658;-65
2021/08/15 10:57:58;;;;;;;14.00;12.90;;;32.90;80.20;;;;;;5087178;28;20630;-65
2021/08/15 11:00:43;;;;;;;15.63;14.17;;;33.40;82.50;;;;;;5086887;28;20633;-65
2021/08/15 11:03:32;;;;;;;14.40;13.20;;;33.00;80.10;;;;;;5085707;28;20699;-66
2021/08/15 11:06:00;;;;;;;13.03;12.13;;;33.50;78.30;;;;;;5085837;28;20638;-65
2021/08/15 11:08:54;;;;;;;13.63;12.43;;;33.30;76.10;;;;;;5089204;22;20702;-66
2021/08/15 11:11:25;;;;;;;13.93;12.83;;;32.60;78.10;;;;;;5080479;28;20631;-66
2021/08/15 11:14:29;;;;;;;14.37;13.07;;;31.40;80.80;;;;;;5074386;22;20691;-65
2021/08/15 11:16:58;;;;;;;14.27;13.07;;;30.70;84.00;;;;;;5072047;22;20669;-66
2021/08/15 11:19:27;;;;;;;14.80;13.20;;;30.20;86.30;;;;;;5084441;28;20625;-66
2021/08/15 11:22:15;;;;;;;13.17;12.27;;;30.40;85.80;;;;;;5086352;22;20614;-65
2021/08/15 11:24:50;;;;;;;14.50;13.40;;;30.70;85.40;;;;;;5106402;28;20691;-65
2021/08/15 11:27:23;;;;;;;13.50;12.40;;;30.90;85.00;;;;;;5098041;28;20685;-65
2021/08/15 11:29:52;;;;;;;13.87;12.67;;;31.10;84.00;;;;;;5100436;28;20707;-65
2021/08/15 11:32:21;;;;;;;13.03;11.93;;;31.30;85.20;;;;;;5105183;28;21186;-65
2021/08/15 11:34:54;;;;;;;13.73;12.50;;;30.80;82.50;;;;;;5106039;28;20985;-65
2021/08/15 11:37:22;;;;;;;14.10;12.80;;;30.40;85.50;;;;;;5102687;28;20628;-65
2021/08/15 11:39:49;;;;;;;14.10;12.83;;;30.30;88.20;;;;;;5110456;28;20634;-65
2021/08/15 11:42:19;;;;;;;13.97;12.67;;;30.00;87.30;;;;;;5108624;28;20621;-65
2021/08/15 11:45:05;;;;;;;14.40;13.13;;;30.20;90.00;;;;;;5100242;28;20814;-65
2021/08/15 11:47:34;;;;;;;12.93;11.80;;;30.40;85.10;;;;;;5105951;28;20630;-65
2021/08/15 11:50:11;;;;;;;13.23;12.23;;;30.40;83.50;;;;;;5106658;28;20736;-65
2021/08/15 11:52:38;;;;;;;13.03;11.93;;;30.00;87.00;;;;;;5110460;28;21262;-65
2021/08/15 11:55:09;;;;;;;12.40;11.30;;;29.60;89.00;;;;;;5109568;28;20632;-65
2021/08/15 11:57:46;;;;;;;14.33;13.07;;;29.60;87.60;;;;;;5101390;28;20618;-66
2021/08/15 12:00:16;;;;;;;13.97;12.50;;;29.60;87.70;;;;;;5104811;28;21192;-65
2021/08/15 12:02:59;;;;;;;14.83;13.33;;;29.20;88.90;;;;;;5102502;28;20649;-65
2021/08/15 12:05:26;;;;;;;14.77;13.17;;;28.70;90.00;;;;;;5103996;28;20679;-65
2021/08/15 12:07:53;;;;;;;13.83;12.73;;;28.40;91.80;;;;;;5106261;28;20625;-65
2021/08/15 12:10:26;;;;;;;15.47;13.87;;;27.90;91.70;;;;;;5099809;28;20983;-65
2021/08/15 12:13:10;;;;;;;14.50;13.20;;;27.80;92.00;;;;;;5104037;28;20633;-65
2021/08/15 12:15:38;;;;;;;13.73;12.53;;;27.60;91.50;;;;;;5107630;28;20725;-65
2021/08/15 12:18:05;;;;;;;14.90;13.40;;;27.60;91.90;;;;;;5096573;22;20770;-66
2021/08/15 12:20:43;;;;;;;13.83;12.43;;;27.40;91.90;;;;;;5083878;28;20633;-67
2021/08/15 12:23:10;;;;;;;13.50;12.30;;;27.40;92.30;;;;;;5068396;22;20690;-66
2021/08/15 12:25:37;;;;;;;14.07;12.97;;;27.50;92.00;;;;;;5050964;28;20658;-65
2021/08/15 12:28:11;;;;;;;13.97;12.70;;;27.70;92.50;;;;;;5076005;23;20755;-67
2021/08/15 12:30:40;;;;;;;13.70;12.50;;;27.70;92.30;;;;;;5089605;28;20639;-67
2021/08/15 12:33:23;;;;;;;14.70;13.50;;;27.40;93.20;;;;;;5084774;22;20709;-65
2021/08/15 12:35:50;;;;;;;14.43;13.33;;;27.30;93.40;;;;;;5077990;28;21009;-65
2021/08/15 12:38:28;;;;;;;15.30;13.90;;;27.10;93.60;;;;;;5080907;28;21063;-65
2021/08/15 12:40:54;;;;;;;14.60;13.33;;;27.10;93.90;;;;;;5085033;28;21263;-65
2021/08/15 12:43:25;;;;;;;14.73;13.63;;;27.10;94.30;;;;;;5087363;28;20710;-65
2021/08/15 12:45:53;;;;;;;16.23;14.73;;;26.80;95.00;;;;;;5088754;28;20674;-65